createdAt,value
2023-04-20T00:03:54.012Z,9.00
2023-04-20T00:09:00.142Z,9.01
2023-04-20T00:14:06.102Z,8.97
2023-04-20T00:19:12.227Z,9.03
2023-04-20T00:24:18.017Z,9.03
2023-04-20T00:29:23.745Z,9.03
2023-04-20T00:34:29.325Z,8.97
2023-04-20T00:39:34.845Z,8.97
2023-04-20T00:44:41.523Z,8.97
2023-04-20T00:49:47.426Z,9.01
2023-04-20T00:54:53.196Z,9.01
2023-04-20T00:59:58.981Z,9.02
2023-04-20T01:05:04.998Z,9.08
2023-04-20T01:10:11.979Z,9.12
2023-04-20T01:15:17.862Z,9.07
2023-04-20T01:20:25.043Z,9.11
2023-04-20T01:25:31.650Z,9.09
2023-04-20T01:30:39.050Z,9.06
2023-04-20T01:35:44.612Z,9.03
2023-04-20T01:40:50.957Z,9.06
2023-04-20T01:45:56.536Z,9.00
2023-04-20T01:51:02.097Z,9.00
2023-04-20T01:56:08.836Z,8.93
2023-04-20T02:01:14.613Z,8.87
2023-04-20T02:06:20.140Z,8.98
2023-04-20T02:11:26.424Z,8.89
2023-04-20T02:16:32.101Z,8.85
2023-04-20T02:21:38.003Z,8.83
2023-04-20T02:26:43.618Z,8.85
2023-04-20T02:31:49.191Z,8.84
2023-04-20T02:36:54.692Z,8.90
2023-04-20T02:42:00.482Z,8.90
2023-04-20T02:47:06.844Z,8.99
2023-04-20T02:52:12.755Z,8.88
2023-04-20T02:57:18.316Z,8.83
2023-04-20T03:02:25.196Z,8.92
2023-04-20T03:07:33.218Z,9.01
2023-04-20T03:12:39.525Z,8.98
2023-04-20T03:18:04.075Z,9.03
2023-04-20T03:23:11.185Z,9.08
2023-04-20T03:28:17.346Z,8.97
2023-04-20T03:33:23.469Z,8.97
2023-04-20T03:38:29.270Z,9.05
2023-04-20T03:43:35.145Z,9.11
2023-04-20T03:48:41.159Z,9.11
2023-04-20T03:53:46.748Z,9.12
2023-04-20T03:58:53.407Z,9.14
2023-04-20T04:04:00.884Z,9.11
2023-04-20T04:09:06.854Z,9.16
2023-04-20T04:14:12.374Z,9.16
2023-04-20T04:19:19.356Z,9.11
2023-04-20T04:24:26.908Z,9.13
2023-04-20T04:29:35.778Z,9.16
2023-04-20T04:34:47.979Z,9.03
2023-04-20T04:39:53.865Z,9.07
2023-04-20T04:45:02.341Z,9.13
2023-04-20T04:50:10.972Z,9.13
2023-04-20T04:55:17.636Z,9.18
2023-04-20T05:00:23.629Z,9.33
2023-04-20T05:05:29.158Z,9.41
2023-04-20T05:10:34.658Z,9.39
2023-04-20T05:15:41.267Z,9.31
2023-04-20T05:20:47.336Z,9.22
2023-04-20T05:25:52.840Z,9.25
2023-04-20T05:30:58.975Z,9.43
2023-04-20T05:36:04.686Z,9.53
2023-04-20T05:41:10.449Z,9.65
2023-04-20T05:46:16.055Z,9.76
2023-04-20T05:51:22.608Z,9.86
2023-04-20T05:56:28.470Z,9.95
2023-04-20T06:01:34.037Z,10.02
2023-04-20T06:06:39.542Z,10.14
2023-04-20T06:11:45.055Z,10.31
2023-04-20T06:16:50.537Z,10.42
2023-04-20T06:21:56.292Z,10.35
2023-04-20T06:27:02.298Z,10.58
2023-04-20T06:32:07.745Z,11.02
2023-04-20T06:37:13.253Z,11.23
2023-04-20T06:42:18.832Z,11.38
2023-04-20T06:47:26.078Z,11.48
2023-04-20T06:52:32.067Z,11.63
2023-04-20T06:57:40.417Z,11.55
2023-04-20T07:02:48.639Z,11.71
2023-04-20T07:07:54.265Z,11.84
2023-04-20T07:12:59.718Z,11.85
2023-04-20T07:18:05.241Z,12.02
2023-04-20T07:23:10.783Z,12.24
2023-04-20T07:28:16.219Z,12.43
2023-04-20T07:33:21.735Z,12.83
2023-04-20T07:38:27.242Z,13.14
2023-04-20T07:43:32.749Z,13.40
2023-04-20T07:48:39.353Z,13.69
2023-04-20T07:53:49.696Z,13.82
2023-04-20T07:58:55.218Z,14.03
2023-04-20T08:04:02.063Z,14.26
2023-04-20T08:09:07.728Z,14.31
2023-04-20T08:14:16.778Z,14.47
2023-04-20T08:19:22.531Z,14.77
2023-04-20T08:24:28.109Z,14.66
2023-04-20T08:29:33.603Z,14.66
2023-04-20T08:34:46.474Z,14.54
2023-04-20T08:39:52.017Z,14.74
2023-04-20T08:44:59.188Z,14.49
2023-04-20T08:50:06.275Z,14.70
2023-04-20T08:55:13.865Z,14.67
2023-04-20T09:00:19.797Z,14.54
2023-04-20T09:05:32.214Z,14.93
2023-04-20T09:10:45.899Z,15.01
2023-04-20T09:15:51.401Z,14.97
2023-04-20T09:20:58.007Z,15.29
2023-04-20T09:26:03.612Z,15.63
2023-04-20T09:31:13.664Z,15.61
2023-04-20T09:36:21.144Z,15.50
2023-04-20T09:41:26.911Z,15.29
2023-04-20T09:46:34.398Z,15.57
2023-04-20T09:51:47.852Z,15.86
2023-04-20T09:56:54.826Z,16.00
2023-04-20T10:02:00.760Z,16.13
2023-04-20T10:07:07.733Z,15.96
2023-04-20T10:12:14.276Z,15.89
2023-04-20T10:17:23.172Z,16.09
2023-04-20T10:22:35.218Z,16.39
2023-04-20T10:27:43.884Z,16.46
2023-04-20T10:32:49.635Z,16.50
2023-04-20T10:37:55.513Z,16.79
2023-04-20T10:43:02.615Z,16.82
2023-04-20T10:48:12.005Z,16.86
2023-04-20T10:53:22.705Z,16.84
2023-04-20T10:58:30.022Z,17.08
2023-04-20T11:03:35.803Z,17.31
2023-04-20T11:08:43.253Z,17.45
2023-04-20T11:13:49.184Z,17.72
2023-04-20T11:18:56.513Z,17.65
2023-04-20T11:24:02.043Z,18.00
2023-04-20T11:29:07.629Z,18.28
2023-04-20T11:34:19.326Z,18.38
2023-04-20T11:39:27.223Z,18.41
2023-04-20T11:44:33.014Z,18.59
2023-04-20T11:49:39.467Z,19.02
2023-04-20T11:54:44.906Z,18.97
2023-04-20T11:59:50.450Z,19.31
2023-04-20T12:04:56.061Z,19.44
2023-04-20T12:10:01.596Z,19.55
2023-04-20T12:15:08.211Z,19.71
2023-04-20T12:20:14.480Z,20.15
2023-04-20T12:25:20.118Z,20.49
2023-04-20T12:30:25.770Z,20.51
2023-04-20T12:35:31.553Z,20.70
2023-04-20T12:40:37.370Z,20.77
2023-04-20T12:45:42.877Z,20.73
2023-04-20T12:50:48.392Z,20.90
2023-04-20T12:56:00.778Z,20.76
2023-04-20T13:01:01.046Z,20.79
2023-04-20T13:06:07.150Z,20.76
2023-04-20T13:11:14.619Z,20.55
2023-04-20T13:16:21.252Z,20.29
2023-04-20T13:21:26.889Z,20.05
2023-04-20T13:26:32.553Z,20.12
2023-04-20T13:31:38.162Z,20.05
2023-04-20T13:36:44.057Z,19.97
2023-04-20T13:41:50.237Z,19.93
2023-04-20T13:46:55.748Z,19.89
2023-04-20T13:52:01.688Z,19.89
2023-04-20T13:57:07.288Z,19.68
2023-04-20T14:02:12.854Z,19.61
2023-04-20T14:07:18.407Z,19.76
2023-04-20T14:12:24.201Z,19.76
2023-04-20T14:17:29.749Z,19.66
2023-04-20T14:22:37.292Z,20.12
2023-04-20T14:27:42.814Z,20.04
2023-04-20T14:33:01.650Z,20.09
2023-04-20T14:38:07.267Z,20.13
2023-04-20T14:43:12.777Z,20.37
2023-04-20T14:48:18.927Z,20.48
2023-04-20T14:53:24.670Z,20.55
2023-04-20T14:58:30.187Z,20.81
2023-04-20T15:03:36.025Z,20.61
2023-04-20T15:08:42.617Z,20.64
2023-04-20T15:13:49.596Z,20.64
2023-04-20T15:18:55.243Z,20.91
2023-04-20T15:24:00.767Z,20.91
2023-04-20T15:29:06.525Z,21.00
2023-04-20T15:34:13.796Z,20.90
2023-04-20T15:39:19.309Z,21.25
2023-04-20T15:44:25.768Z,20.95
2023-04-20T15:49:31.202Z,20.77
2023-04-20T15:54:37.960Z,20.57
2023-04-20T15:59:43.814Z,20.74
2023-04-20T16:04:49.467Z,21.12
2023-04-20T16:09:55.193Z,21.49
2023-04-20T16:15:03.760Z,22.31
2023-04-20T16:20:10.361Z,23.29
2023-04-20T16:25:17.448Z,24.69
2023-04-20T16:30:22.950Z,25.60
2023-04-20T16:35:28.622Z,26.28
2023-04-20T16:40:34.150Z,26.26
2023-04-20T16:45:39.723Z,25.49
2023-04-20T16:50:49.636Z,24.63
2023-04-20T16:55:55.060Z,23.40
2023-04-20T17:01:00.545Z,22.88
2023-04-20T17:06:08.250Z,22.47
2023-04-20T17:11:15.744Z,22.04
2023-04-20T17:16:21.337Z,21.79
2023-04-20T17:21:27.834Z,21.28
2023-04-20T17:26:33.375Z,21.01
2023-04-20T17:31:39.168Z,20.79
2023-04-20T17:36:44.699Z,20.47
2023-04-20T17:41:50.525Z,20.29
2023-04-20T17:46:56.193Z,20.11
2023-04-20T17:52:01.801Z,19.92
2023-04-20T17:57:08.947Z,19.70
2023-04-20T18:02:14.955Z,19.51
2023-04-20T18:07:20.845Z,19.30
2023-04-20T18:12:26.426Z,19.11
2023-04-20T18:17:32.600Z,18.84
2023-04-20T18:22:38.902Z,18.62
2023-04-20T18:27:44.431Z,18.33
2023-04-20T18:32:49.991Z,18.02
2023-04-20T18:43:56.954Z,17.45
2023-04-20T18:49:02.574Z,17.04
2023-04-20T18:54:08.333Z,16.78
2023-04-20T18:59:13.880Z,16.53
2023-04-20T19:04:19.834Z,16.30
2023-04-20T19:10:01.228Z,16.09
2023-04-20T19:15:09.082Z,15.90
2023-04-20T19:20:44.544Z,15.68
2023-04-20T19:26:02.977Z,15.50
2023-04-20T19:31:10.225Z,15.29
2023-04-20T19:36:16.066Z,15.31
2023-04-20T19:41:22.369Z,15.30
2023-04-20T19:46:28.285Z,15.20
2023-04-20T19:51:34.208Z,15.26
2023-04-20T19:56:40.274Z,15.04
2023-04-20T20:01:46.300Z,14.90
2023-04-20T20:06:51.998Z,14.88
2023-04-20T20:11:57.529Z,14.82
2023-04-20T20:17:03.311Z,14.77
2023-04-20T20:22:24.067Z,14.79
2023-04-20T20:27:32.281Z,14.60
2023-04-20T20:32:37.850Z,14.54
2023-04-20T20:37:45.434Z,14.40
2023-04-20T20:42:54.811Z,14.30
2023-04-20T20:48:00.675Z,14.15
2023-04-20T20:53:06.279Z,14.03
2023-04-20T20:58:17.552Z,13.95
2023-04-20T21:03:23.210Z,13.79
2023-04-20T21:08:28.998Z,13.74
2023-04-20T21:13:34.531Z,13.73
2023-04-20T21:18:40.137Z,13.60
2023-04-20T21:23:45.709Z,13.55
2023-04-20T21:28:51.336Z,13.39
2023-04-20T21:33:57.090Z,13.25
2023-04-20T21:39:04.090Z,13.28
2023-04-20T21:44:09.726Z,13.36
2023-04-20T21:49:15.471Z,13.36
2023-04-20T21:54:21.146Z,13.37
2023-04-20T21:59:26.678Z,13.34
2023-04-20T22:04:32.474Z,13.29
2023-04-20T22:09:38.546Z,13.22
2023-04-20T22:14:44.121Z,13.17
2023-04-20T22:19:49.718Z,13.15
2023-04-20T22:24:55.173Z,13.11
2023-04-20T22:30:00.988Z,13.07
2023-04-20T22:35:07.903Z,13.00
2023-04-20T22:40:14.358Z,12.94
2023-04-20T22:45:22.425Z,12.91
2023-04-20T22:50:28.312Z,12.92
2023-04-20T22:55:33.964Z,12.94
2023-04-20T23:00:39.612Z,12.91
2023-04-20T23:05:45.192Z,12.90
2023-04-20T23:10:50.990Z,12.88
2023-04-20T23:15:56.915Z,12.86
2023-04-20T23:21:02.619Z,12.84
2023-04-20T23:26:08.053Z,12.83
2023-04-20T23:31:14.623Z,12.82
2023-04-20T23:36:20.193Z,12.76
2023-04-20T23:41:26.041Z,12.72
2023-04-20T23:46:31.798Z,12.60
2023-04-20T23:51:39.188Z,12.47
2023-04-20T23:56:44.865Z,12.40
